Bienvenue sur la page dédiée à la station météo de Courtenay (Loiret)
Vent Valable du: 23-09-2018 09:05 Au: 24-09-2018 05:00 Vigilance météorologique pour: Vent Niveau: Jaune info button

Retrouvez également nos données météorologiques sur:

UK Metoffice

Weather Underground

AWEKAS

Citizen Weather Observer Program (CWOP)



Rapports METAR à proximité

   
LFOJ - Montargis
Mise à jour: 23-09-2018 14:00
Pluie faible, Nuageux  
Pluie faible, Nuageux  
   Vent: OSO 35.2 km/h
Vent: OSO 35.2 km/h
Température: 20°C
Point de rosée: 19°C
Humidité: 94%
Pression atmosphérique: 1015 hPa
Nuages: Nuageux
Visibilité: 6 km
Nébulosité: Nuageux 600 ft
LFOJ 231200Z AUTO 24019KT 6000 -RA OVC006 20/19 Q1015 TEMPO 31025G47KT 4000 -RA BKN010 BKN020TCU
LFOJ - Orléans
Mise à jour: 23-09-2018 14:00
Pluie faible, Nuageux  
Pluie faible, Nuageux  
   Vent: OSO 35.2 km/h
Vent: OSO 35.2 km/h
Température: 20°C
Point de rosée: 19°C
Humidité: 94%
Pression atmosphérique: 1015 hPa
Nuages: Nuageux
Visibilité: 6 km
Nébulosité: Nuageux 600 ft
LFOJ 231200Z AUTO 24019KT 6000 -RA OVC006 20/19 Q1015 TEMPO 31025G47KT 4000 -RA BKN010 BKN020TCU
LFQB - Sens
Mise à jour: 23-09-2018 14:00
Peu de nuages  
Peu de nuages  
   Vent: SSO 37 km/h
Vent: SSO 37 km/h
Température: 22°C
Point de rosée: 19°C
Humidité: 83%
Pression atmosphérique: 1013 hPa
Nuages: Peu de nuages
Visibilité: Supérieur à 10 km
Nébulosité: Peu de nuages 2500 ft
LFQB 231200Z AUTO 21020KT 9999 FEW025 22/19 Q1013
LFQB - Auxerre
Mise à jour: 23-09-2018 14:00
Peu de nuages  
Peu de nuages  
   Vent: SSO 37 km/h
Vent: SSO 37 km/h
Température: 22°C
Point de rosée: 19°C
Humidité: 83%
Pression atmosphérique: 1013 hPa
Nuages: Peu de nuages
Visibilité: Supérieur à 10 km
Nébulosité: Peu de nuages 2500 ft
LFQB 231200Z AUTO 21020KT 9999 FEW025 22/19 Q1013
LFPO - Paris
Mise à jour: 23-09-2018 14:00
Pluie faible, Nuageux  
Pluie faible, Nuageux  
   Vent: OSO 33.3 km/h
Vent: OSO 33.3 km/h
Température: 21°C
Point de rosée: 19°C
Humidité: 88%
Pression atmosphérique: 1012 hPa
Nuages: Nuageux
Visibilité: Supérieur à 10 km
Nébulosité: Nuageux 1200 ft,
Peu de nuages 2000 ft
LFPO 231200Z 25018KT 9999 -RA BKN012 FEW020TCU 21/19 Q1012 TEMPO 25025G40KT 2500 RA
LFLX - Bourges
Mise à jour: 23-09-2018 14:00
Nuageux  
Nuageux  
   Vent: OSO 35.2 km/h
Vent: OSO 35.2 km/h
Température: 21°C
Point de rosée: 18°C
Humidité: 83%
Pression atmosphérique: 1019 hPa
Nuages: Nuageux
Visibilité: Supérieur à 10 km
Nébulosité: Nuageux 1400 ft
LFLX 231200Z AUTO 24019KT 9999 OVC014 21/18 Q1019 TEMPO 23018G32KT 4000 -DZ OVC003

Original script by  Saratoga-weather.org Adapted for the template by  Weerstation Leuven

Matériel utilisé:

Programme Météo
Meteohub

Meteohub